Time;durP1;ratioP1;P1;durP2;ratioP2;P2;SDS_P1;SDS_P2;PMS_P1;PMS_P2;Temp;Humidity;BMP_temperature;BMP_pressure;BME280_temperature;BME280_humidity;BME280_pressure;Samples;Min_cycle;Max_cycle;Signal;HPM_P1;HPM_P2
2022/11/06 00:00:11;;;;;;;;;;;22.00;97.00;;;;;;5015033;28;19925;-76
2022/11/06 00:02:38;;;;;;;;;;;22.00;97.00;;;;;;5015192;28;19925;-77
2022/11/06 00:07:49;;;;;;;;;;;22.00;97.00;;;;;;5014719;28;19928;-77
2022/11/06 00:10:18;;;;;;;;;;;22.00;97.00;;;;;;5014551;28;20000;-78
2022/11/06 00:12:44;;;;;;;;;;;22.00;97.10;;;;;;5015380;28;19933;-77
2022/11/06 00:15:11;;;;;;;;;;;22.00;97.10;;;;;;5015329;28;19933;-78
2022/11/06 00:17:39;;;;;;;;;;;22.00;97.10;;;;;;5015302;28;19925;-78
2022/11/06 00:20:06;;;;;;;;;;;22.00;97.10;;;;;;5015089;28;19930;-77
2022/11/06 00:22:33;;;;;;;;;;;22.00;97.20;;;;;;5015231;28;19932;-77
2022/11/06 00:25:00;;;;;;;;;;;22.00;97.20;;;;;;5015169;28;19925;-77
2022/11/06 00:27:28;;;;;;;;;;;22.10;97.30;;;;;;5014947;28;19929;-77
2022/11/06 00:29:55;;;;;;;;;;;22.00;97.20;;;;;;5014722;28;19933;-77
2022/11/06 00:32:21;;;;;;;;;;;22.00;97.20;;;;;;5015000;28;19932;-77
2022/11/06 00:34:48;;;;;;;;;;;22.00;97.60;;;;;;5015099;28;20496;-78
2022/11/06 00:37:14;;;;;;;;;;;22.00;97.30;;;;;;5015652;28;19925;-77
2022/11/06 00:39:41;;;;;;;;;;;22.10;97.40;;;;;;5015212;28;19947;-77
2022/11/06 00:42:08;;;;;;;;;;;22.10;97.40;;;;;;5015061;28;19926;-77
2022/11/06 00:44:35;;;;;;;;;;;22.00;97.30;;;;;;5014999;28;19933;-77
2022/11/06 00:47:02;;;;;;;;;;;22.00;97.30;;;;;;5014686;28;19926;-77
2022/11/06 00:49:29;;;;;;;;;;;22.00;97.40;;;;;;5014785;28;19949;-77
2022/11/06 00:51:55;;;;;;;;;;;22.10;97.40;;;;;;5014569;28;19929;-77
2022/11/06 00:54:22;;;;;;;;;;;22.10;97.50;;;;;;5014316;28;19926;-77
2022/11/06 00:56:48;;;;;;;;;;;22.10;97.50;;;;;;5014279;28;19933;-77
2022/11/06 00:59:15;;;;;;;;;;;22.10;97.50;;;;;;5014271;28;20304;-77
2022/11/06 01:01:44;;;;;;;;;;;22.10;97.60;;;;;;5014468;28;19933;-77
2022/11/06 01:04:11;;;;;;;;;;;22.10;97.60;;;;;;5014296;28;19926;-77
2022/11/06 06:26:15;;;;;;;;;;;22.10;96.90;;;;;;5254172;23;19980;-82
2022/11/06 06:28:41;;;;;;;;;;;22.10;96.90;;;;;;5016562;28;19932;-82
2022/11/06 06:31:08;;;;;;;;;;;21.90;96.80;;;;;;5017187;28;20290;-82
2022/11/06 06:33:35;;;;;;;;;;;22.10;96.90;;;;;;5017235;28;20287;-82
2022/11/06 06:36:03;;;;;;;;;;;22.10;96.90;;;;;;5017268;28;19926;-82
2022/11/06 06:38:30;;;;;;;;;;;22.10;96.90;;;;;;5043713;22;19932;-84
2022/11/06 06:41:00;;;;;;;;;;;22.10;96.80;;;;;;5025292;28;19947;-84
2022/11/06 06:43:27;;;;;;;;;;;22.10;96.80;;;;;;5024376;28;20066;-83
2022/11/06 06:45:57;;;;;;;;;;;22.10;96.80;;;;;;5021970;28;19933;-82
2022/11/06 06:48:23;;;;;;;;;;;22.10;96.70;;;;;;5021660;28;19925;-83
2022/11/06 06:50:50;;;;;;;;;;;22.10;96.70;;;;;;5022693;28;19925;-82
2022/11/06 06:53:16;;;;;;;;;;;22.10;96.60;;;;;;5022090;28;20419;-82
2022/11/06 06:55:43;;;;;;;;;;;22.00;96.50;;;;;;5021574;28;19929;-83
2022/11/06 06:58:10;;;;;;;;;;;22.10;96.50;;;;;;5020880;28;19925;-83
2022/11/06 07:00:38;;;;;;;;;;;22.10;96.50;;;;;;5020806;28;19932;-82
2022/11/06 07:03:05;;;;;;;;;;;22.10;96.50;;;;;;5020869;28;19925;-81
2022/11/06 07:05:31;;;;;;;;;;;22.00;96.40;;;;;;5021654;28;19925;-83
2022/11/06 07:07:58;;;;;;;;;;;22.00;96.40;;;;;;5021012;28;19925;-84
2022/11/06 07:10:25;;;;;;;;;;;22.00;96.40;;;;;;5018891;28;19933;-83
2022/11/06 07:12:51;;;;;;;;;;;22.00;96.40;;;;;;5019835;28;19926;-83
2022/11/06 07:15:18;;;;;;;;;;;21.80;96.40;;;;;;5019763;28;19926;-83
2022/11/06 07:17:46;;;;;;;;;;;22.00;96.50;;;;;;5019022;28;19929;-83
2022/11/06 07:20:13;;;;;;;;;;;22.10;96.70;;;;;;5019232;28;19926;-83
2022/11/06 07:22:39;;;;;;;;;;;22.10;96.80;;;;;;5020275;28;19932;-83
2022/11/06 07:25:06;;;;;;;;;;;22.10;96.80;;;;;;5020244;28;19932;-83
2022/11/06 07:27:33;;;;;;;;;;;22.10;96.90;;;;;;5019948;28;19936;-83
2022/11/06 07:30:00;;;;;;;;;;;22.10;96.90;;;;;;5021299;28;19933;-83
2022/11/06 07:32:26;;;;;;;;;;;22.10;97.00;;;;;;5023717;28;19925;-83
2022/11/06 07:34:54;;;;;;;;;;;22.00;97.00;;;;;;5021550;28;20403;-83
2022/11/06 07:37:21;;;;;;;;;;;22.10;97.00;;;;;;5020797;28;19926;-83
2022/11/06 07:39:48;;;;;;;;;;;22.20;97.10;;;;;;5022092;28;20020;-83
2022/11/06 07:42:14;;;;;;;;;;;22.10;97.10;;;;;;5021994;28;19932;-83
2022/11/06 07:44:41;;;;;;;;;;;22.10;97.10;;;;;;5022897;28;19925;-83
2022/11/06 07:47:07;;;;;;;;;;;22.10;97.10;;;;;;5021766;28;19931;-83
2022/11/06 07:49:34;;;;;;;;;;;22.10;97.10;;;;;;5020616;28;20389;-83
2022/11/06 07:52:02;;;;;;;;;;;22.10;97.10;;;;;;5023570;28;19925;-83
2022/11/06 07:54:28;;;;;;;;;;;22.20;97.20;;;;;;5027475;28;19925;-83
2022/11/06 07:56:55;;;;;;;;;;;22.10;97.10;;;;;;5024280;28;20384;-83
2022/11/06 07:59:22;;;;;;;;;;;22.10;97.10;;;;;;5027548;28;19926;-82
2022/11/06 08:01:48;;;;;;;;;;;21.90;97.00;;;;;;5028171;28;19930;-82
2022/11/06 08:04:15;;;;;;;;;;;22.10;97.10;;;;;;5027477;28;19925;-83
2022/11/06 08:06:41;;;;;;;;;;;22.10;97.20;;;;;;5025352;28;19944;-83
2022/11/06 08:09:09;;;;;;;;;;;22.00;97.20;;;;;;5020154;28;19926;-83
2022/11/06 08:11:36;;;;;;;;;;;21.90;97.20;;;;;;5020665;28;19926;-84
2022/11/06 08:14:03;;;;;;;;;;;22.10;97.30;;;;;;5018468;28;19933;-85
2022/11/06 08:16:29;;;;;;;;;;;22.10;97.40;;;;;;5017096;28;20296;-85
2022/11/06 08:18:56;;;;;;;;;;;22.10;97.50;;;;;;5017810;28;19932;-85
2022/11/06 08:21:22;;;;;;;;;;;22.10;97.30;;;;;;5016265;28;20072;-82
2022/11/06 08:23:49;;;;;;;;;;;22.00;97.10;;;;;;5016727;28;19926;-84
2022/11/06 08:26:17;;;;;;;;;;;22.00;96.30;;;;;;5016915;28;19925;-84
2022/11/06 08:28:44;;;;;;;;;;;21.90;95.90;;;;;;5018089;28;19937;-84
2022/11/06 08:31:10;;;;;;;;;;;21.80;95.50;;;;;;5017068;28;19932;-84
2022/11/06 08:33:37;;;;;;;;;;;21.70;95.10;;;;;;5016494;28;19925;-82
2022/11/06 08:36:05;;;;;;;;;;;21.90;94.90;;;;;;5016334;28;19925;-83
2022/11/06 08:38:32;;;;;;;;;;;21.60;94.50;;;;;;5016239;28;19948;-82
2022/11/06 08:40:58;;;;;;;;;;;21.60;94.10;;;;;;5016290;28;19925;-82
2022/11/06 08:43:26;;;;;;;;;;;21.60;93.80;;;;;;5016171;28;19925;-84
2022/11/06 08:45:53;;;;;;;;;;;21.60;93.60;;;;;;5016425;28;19932;-83
2022/11/06 08:48:19;;;;;;;;;;;21.70;93.40;;;;;;5015732;28;19926;-83
2022/11/06 08:50:46;;;;;;;;;;;21.50;93.00;;;;;;5015858;28;19926;-83
2022/11/06 08:53:12;;;;;;;;;;;21.60;92.80;;;;;;5016466;28;20393;-82
2022/11/06 08:55:39;;;;;;;;;;;21.50;92.50;;;;;;5016595;28;19925;-83
2022/11/06 08:58:06;;;;;;;;;;;21.50;92.30;;;;;;5015729;28;19926;-81
2022/11/06 09:00:35;;;;;;;;;;;21.50;92.20;;;;;;5016123;28;19926;-78
2022/11/06 09:03:02;;;;;;;;;;;21.50;92.00;;;;;;5014207;28;19958;-76
2022/11/06 09:05:29;;;;;;;;;;;21.50;91.90;;;;;;5014680;28;19929;-76
2022/11/06 09:07:56;;;;;;;;;;;21.50;91.70;;;;;;5017210;28;19925;-77
2022/11/06 09:10:23;;;;;;;;;;;21.60;91.60;;;;;;5019038;28;19926;-78
2022/11/06 09:12:49;;;;;;;;;;;22.20;91.80;;;;;;5018347;28;19925;-76
2022/11/06 09:15:16;;;;;;;;;;;21.60;91.30;;;;;;5018092;28;19925;-76
2022/11/06 09:17:44;;;;;;;;;;;21.50;91.10;;;;;;5018465;28;20373;-80
2022/11/06 09:20:11;;;;;;;;;;;21.60;91.10;;;;;;5020929;28;19925;-79
2022/11/06 09:22:38;;;;;;;;;;;21.50;91.10;;;;;;5019173;28;20377;-78
2022/11/06 09:25:05;;;;;;;;;;;21.50;90.80;;;;;;5019939;28;19929;-79
2022/11/06 09:27:31;;;;;;;;;;;21.50;90.70;;;;;;5018969;28;19925;-80
2022/11/06 09:29:58;;;;;;;;;;;21.50;90.40;;;;;;5019291;28;20373;-80
2022/11/06 09:32:25;;;;;;;;;;;21.50;90.30;;;;;;5020784;28;19929;-81
2022/11/06 09:34:53;;;;;;;;;;;21.40;90.10;;;;;;5019109;28;19925;-81
2022/11/06 09:37:19;;;;;;;;;;;21.40;89.90;;;;;;5020073;28;19926;-81
2022/11/06 09:39:46;;;;;;;;;;;21.40;89.60;;;;;;5018842;28;20369;-81
2022/11/06 09:42:21;;;;;;;;;;;21.40;89.30;;;;;;5019438;28;19925;-82
2022/11/06 09:44:54;;;;;;;;;;;21.40;89.10;;;;;;5018897;28;19926;-82
2022/11/06 09:47:23;;;;;;;;;;;21.30;88.60;;;;;;5018398;28;20293;-82
2022/11/06 09:49:51;;;;;;;;;;;21.30;88.40;;;;;;5018900;28;19984;-82
2022/11/06 09:52:22;;;;;;;;;;;21.40;88.30;;;;;;5018851;28;19948;-82
2022/11/06 09:54:52;;;;;;;;;;;21.40;88.00;;;;;;5017483;28;20373;-82
2022/11/06 09:57:21;;;;;;;;;;;21.40;87.70;;;;;;5017807;28;20296;-82
2022/11/06 09:59:48;;;;;;;;;;;21.40;87.50;;;;;;5017974;28;19925;-82
2022/11/06 10:02:20;;;;;;;;;;;21.50;87.30;;;;;;5018112;28;19936;-82
2022/11/06 10:04:49;;;;;;;;;;;21.40;87.00;;;;;;5018215;28;19925;-82
2022/11/06 10:07:23;;;;;;;;;;;21.40;86.70;;;;;;5018458;28;20389;-82
2022/11/06 10:09:49;;;;;;;;;;;21.40;86.70;;;;;;5017924;28;19933;-81
2022/11/06 10:12:21;;;;;;;;;;;21.40;86.70;;;;;;5018418;28;19949;-81
2022/11/06 10:14:54;;;;;;;;;;;21.40;86.70;;;;;;5019701;28;19925;-81
2022/11/06 10:17:31;;;;;;;;;;;21.40;86.60;;;;;;5018345;28;19925;-80
2022/11/06 10:20:03;;;;;;;;;;;21.00;85.90;;;;;;5016942;28;19925;-82
2022/11/06 10:22:36;;;;;;;;;;;21.30;86.00;;;;;;5018707;28;19933;-81
2022/11/06 10:25:08;;;;;;;;;;;21.40;85.90;;;;;;5017772;28;19983;-81
2022/11/06 10:27:38;;;;;;;;;;;21.30;85.70;;;;;;5019652;28;19997;-81
2022/11/06 10:30:09;;;;;;;;;;;21.30;85.60;;;;;;5020007;28;19930;-81
2022/11/06 10:32:48;;;;;;;;;;;21.30;85.50;;;;;;5020363;28;19930;-81
2022/11/06 10:35:17;;;;;;;;;;;21.30;85.40;;;;;;5019562;28;19929;-81
2022/11/06 10:37:48;;;;;;;;;;;21.30;85.30;;;;;;5018711;28;19925;-80
2022/11/06 10:40:16;;;;;;;;;;;21.30;85.20;;;;;;5019151;28;19926;-81
2022/11/06 10:42:45;;;;;;;;;;;21.30;85.10;;;;;;5018679;28;19932;-81
2022/11/06 10:45:13;;;;;;;;;;;21.40;85.20;;;;;;5018446;28;20408;-81
2022/11/06 10:47:42;;;;;;;;;;;21.30;84.90;;;;;;5018670;28;19925;-81
2022/11/06 10:50:12;;;;;;;;;;;21.40;85.00;;;;;;5019070;28;19941;-82
2022/11/06 10:52:44;;;;;;;;;;;21.30;84.80;;;;;;5019298;28;19925;-82
2022/11/06 10:55:29;;;;;;;;;;;21.30;84.70;;;;;;5019104;28;19948;-82
2022/11/06 10:57:59;;;;;;;;;;;21.30;84.70;;;;;;5019357;28;19929;-81
2022/11/06 11:00:25;;;;;;;;;;;21.40;84.80;;;;;;5018095;28;19930;-81
2022/11/06 11:02:53;;;;;;;;;;;21.30;84.60;;;;;;5018038;28;19926;-81
2022/11/06 11:05:20;;;;;;;;;;;21.30;84.60;;;;;;5018599;28;19964;-81
2022/11/06 11:07:48;;;;;;;;;;;21.30;84.50;;;;;;5018444;28;19933;-81
2022/11/06 11:10:25;;;;;;;;;;;21.30;84.50;;;;;;5017889;28;19925;-82
2022/11/06 11:12:52;;;;;;;;;;;21.30;84.40;;;;;;5017935;28;19925;-82
2022/11/06 11:15:21;;;;;;;;;;;21.40;84.50;;;;;;5018427;28;19925;-81
2022/11/06 11:18:02;;;;;;;;;;;21.30;84.40;;;;;;5018128;28;19937;-80
2022/11/06 11:20:31;;;;;;;;;;;21.30;84.40;;;;;;5018225;28;19940;-81
2022/11/06 11:23:12;;;;;;;;;;;21.30;84.40;;;;;;5018675;28;19926;-81
2022/11/06 11:25:39;;;;;;;;;;;21.30;84.40;;;;;;5018308;28;20017;-80
2022/11/06 11:28:05;;;;;;;;;;;21.40;84.50;;;;;;5021126;28;19925;-80
2022/11/06 11:30:33;;;;;;;;;;;21.30;84.30;;;;;;5026915;28;19926;-80
2022/11/06 11:33:00;;;;;;;;;;;21.30;84.30;;;;;;5026915;28;20295;-80
2022/11/06 11:35:28;;;;;;;;;;;21.30;84.40;;;;;;5020729;28;19925;-81
2022/11/06 11:38:04;;;;;;;;;;;21.30;84.40;;;;;;5020288;28;19925;-79
2022/11/06 11:40:35;;;;;;;;;;;21.30;84.40;;;;;;5020086;28;20416;-82
2022/11/06 11:43:15;;;;;;;;;;;21.30;84.30;;;;;;5018753;28;19925;-80
2022/11/06 11:45:43;;;;;;;;;;;21.30;84.30;;;;;;5018754;28;19925;-81
2022/11/06 11:48:12;;;;;;;;;;;21.20;84.40;;;;;;5018976;28;19929;-80
2022/11/06 11:50:39;;;;;;;;;;;21.30;84.70;;;;;;5019049;28;19933;-80
2022/11/06 11:53:07;;;;;;;;;;;21.30;84.90;;;;;;5018631;28;19926;-80
2022/11/06 11:55:37;;;;;;;;;;;21.40;85.20;;;;;;5018629;28;19925;-80
2022/11/06 11:58:04;;;;;;;;;;;21.40;85.40;;;;;;5018635;28;19925;-81
2022/11/06 12:00:30;;;;;;;;;;;21.40;85.60;;;;;;5018114;28;20396;-81
2022/11/06 12:02:59;;;;;;;;;;;21.40;85.80;;;;;;5018239;28;19925;-80
2022/11/06 12:05:28;;;;;;;;;;;21.40;85.90;;;;;;5018046;28;20440;-80
2022/11/06 12:07:55;;;;;;;;;;;21.40;86.10;;;;;;5018658;28;19932;-80
2022/11/06 12:10:26;;;;;;;;;;;21.40;86.30;;;;;;5017491;28;20293;-80
2022/11/06 12:12:53;;;;;;;;;;;21.40;86.70;;;;;;5017641;28;19934;-80
2022/11/06 12:15:21;;;;;;;;;;;21.40;86.70;;;;;;5018108;28;19925;-81
2022/11/06 12:17:52;;;;;;;;;;;21.50;86.80;;;;;;5017630;28;19925;-80
2022/11/06 12:20:22;;;;;;;;;;;21.40;86.70;;;;;;5018839;28;19926;-82
2022/11/06 12:22:49;;;;;;;;;;;21.40;86.70;;;;;;5017174;28;19933;-81
2022/11/06 12:25:19;;;;;;;;;;;21.40;86.70;;;;;;5021218;28;19932;-82
2022/11/06 12:27:47;;;;;;;;;;;21.40;86.70;;;;;;5022565;28;20068;-81
2022/11/06 12:30:16;;;;;;;;;;;21.40;86.70;;;;;;5023420;28;20016;-82
2022/11/06 12:32:56;;;;;;;;;;;21.40;86.70;;;;;;5023819;28;19980;-81
2022/11/06 12:35:28;;;;;;;;;;;21.40;86.80;;;;;;5022571;28;19926;-81
2022/11/06 12:38:05;;;;;;;;;;;21.40;87.00;;;;;;5020761;28;19925;-83
2022/11/06 12:40:35;;;;;;;;;;;21.40;87.10;;;;;;5022227;28;19926;-82
2022/11/06 12:43:12;;;;;;;;;;;21.40;87.20;;;;;;5022851;28;19925;-83
2022/11/06 12:45:47;;;;;;;;;;;21.40;87.30;;;;;;5023556;28;19933;-80
2022/11/06 12:48:22;;;;;;;;;;;21.40;87.40;;;;;;5022514;28;19925;-79
2022/11/06 12:50:53;;;;;;;;;;;21.40;87.40;;;;;;5022632;28;19926;-79
2022/11/06 12:53:28;;;;;;;;;;;21.40;87.50;;;;;;5023495;28;19957;-79
2022/11/06 12:55:58;;;;;;;;;;;21.40;87.50;;;;;;5023431;28;19993;-79
2022/11/06 12:58:35;;;;;;;;;;;21.40;87.50;;;;;;5023326;28;19933;-79
2022/11/06 13:01:05;;;;;;;;;;;21.40;87.60;;;;;;5023418;28;19926;-79
2022/11/06 13:03:50;;;;;;;;;;;21.40;87.60;;;;;;5021162;28;19933;-79
2022/11/06 13:06:22;;;;;;;;;;;21.40;87.60;;;;;;5021455;28;20278;-78
2022/11/06 13:08:52;;;;;;;;;;;21.40;87.60;;;;;;5020783;28;19933;-79
2022/11/06 13:11:25;;;;;;;;;;;21.40;87.60;;;;;;5019999;28;19926;-83
2022/11/06 13:13:57;;;;;;;;;;;21.30;87.60;;;;;;5021191;28;19926;-78
2022/11/06 13:16:28;;;;;;;;;;;21.30;87.70;;;;;;5021923;28;19987;-80
2022/11/06 13:18:59;;;;;;;;;;;21.30;87.80;;;;;;5021499;28;20340;-78
2022/11/06 13:21:32;;;;;;;;;;;21.30;87.90;;;;;;5022409;28;19926;-80
2022/11/06 13:24:02;;;;;;;;;;;21.40;88.00;;;;;;5022834;28;19932;-79
2022/11/06 13:26:32;;;;;;;;;;;21.40;88.20;;;;;;5021028;28;20324;-83
2022/11/06 13:29:02;;;;;;;;;;;21.40;88.10;;;;;;5021601;28;19964;-83
2022/11/06 13:31:34;;;;;;;;;;;21.40;88.20;;;;;;5019964;28;19925;-83
2022/11/06 13:34:03;;;;;;;;;;;21.40;88.20;;;;;;5020936;28;19925;-82
2022/11/06 13:36:35;;;;;;;;;;;21.30;88.00;;;;;;5021962;28;19925;-82
2022/11/06 13:39:05;;;;;;;;;;;21.30;88.00;;;;;;5023857;28;19925;-79
2022/11/06 13:41:32;;;;;;;;;;;21.30;88.10;;;;;;5021822;28;19926;-83
2022/11/06 13:44:02;;;;;;;;;;;21.30;88.20;;;;;;5022518;28;19926;-83
2022/11/06 13:46:35;;;;;;;;;;;21.30;88.20;;;;;;5020178;28;19929;-80
2022/11/06 13:49:06;;;;;;;;;;;21.30;88.20;;;;;;5021538;28;19947;-82
2022/11/06 13:51:40;;;;;;;;;;;21.30;88.30;;;;;;5019955;28;19971;-82
2022/11/06 13:54:12;;;;;;;;;;;21.30;88.40;;;;;;5016161;28;19930;-82
2022/11/06 13:56:46;;;;;;;;;;;21.30;88.50;;;;;;5018485;28;19925;-78
2022/11/06 15:36:11;;;;;;;;;;;21.10;88.30;;;;;;5444288;22;19926;-81
2022/11/06 15:38:38;;;;;;;;;;;21.00;88.20;;;;;;5018560;28;19929;-80
2022/11/06 15:41:05;;;;;;;;;;;21.10;88.30;;;;;;5017126;28;19932;-80
2022/11/06 15:43:34;;;;;;;;;;;21.00;88.30;;;;;;5016979;28;19925;-79
2022/11/06 15:46:15;;;;;;;;;;;21.00;88.40;;;;;;5017034;28;19932;-79
2022/11/06 15:48:42;;;;;;;;;;;21.10;88.60;;;;;;5017907;28;19926;-80
2022/11/06 15:51:21;;;;;;;;;;;21.10;88.80;;;;;;5018009;28;20438;-81
2022/11/06 15:53:47;;;;;;;;;;;21.10;88.90;;;;;;5018517;28;19929;-80
2022/11/06 15:56:15;;;;;;;;;;;21.10;89.00;;;;;;5017851;28;19926;-80
2022/11/06 15:58:42;;;;;;;;;;;21.10;89.10;;;;;;5017191;28;19933;-80
2022/11/06 16:01:10;;;;;;;;;;;21.10;89.20;;;;;;5017994;28;19925;-80
2022/11/06 16:03:43;;;;;;;;;;;21.10;89.30;;;;;;5018116;28;19935;-80
2022/11/06 16:06:10;;;;;;;;;;;21.10;89.40;;;;;;5018124;28;20277;-79
2022/11/06 16:08:38;;;;;;;;;;;21.20;89.60;;;;;;5018710;28;19929;-82
2022/11/06 16:11:05;;;;;;;;;;;21.10;89.50;;;;;;5019386;28;20304;-81
2022/11/06 16:13:32;;;;;;;;;;;21.10;89.60;;;;;;5020650;28;20003;-81
2022/11/06 16:15:59;;;;;;;;;;;21.10;90.20;;;;;;5020815;28;19971;-82
2022/11/06 16:18:27;;;;;;;;;;;21.10;89.90;;;;;;5021716;28;19925;-83
2022/11/06 16:20:55;;;;;;;;;;;21.10;90.00;;;;;;5021205;28;19926;-82
2022/11/06 16:23:23;;;;;;;;;;;21.10;90.00;;;;;;5023844;28;19925;-83
2022/11/06 16:25:58;;;;;;;;;;;21.40;90.20;;;;;;5021942;28;19976;-81
2022/11/06 16:28:26;;;;;;;;;;;21.10;90.10;;;;;;5019714;28;19925;-81
2022/11/06 16:30:53;;;;;;;;;;;21.10;90.10;;;;;;5020230;28;19930;-81
2022/11/06 16:33:21;;;;;;;;;;;21.10;90.20;;;;;;5021430;28;19926;-82
2022/11/06 16:35:49;;;;;;;;;;;21.20;90.20;;;;;;5021233;28;19935;-82
2022/11/06 16:38:35;;;;;;;;;;;21.10;90.20;;;;;;5020620;28;20391;-82
2022/11/06 16:41:03;;;;;;;;;;;21.10;90.30;;;;;;5021640;28;20301;-82
2022/11/06 16:43:30;;;;;;;;;;;21.10;90.30;;;;;;5022048;28;19932;-82
2022/11/06 16:45:58;;;;;;;;;;;21.10;90.40;;;;;;5021278;28;19957;-82
2022/11/06 16:48:34;;;;;;;;;;;21.20;90.40;;;;;;5021211;28;19957;-82
2022/11/06 16:51:03;;;;;;;;;;;21.10;90.40;;;;;;5020590;28;19932;-82
2022/11/06 16:53:31;;;;;;;;;;;21.10;90.40;;;;;;5021029;28;19940;-81
2022/11/06 16:55:59;;;;;;;;;;;21.00;90.40;;;;;;5020334;28;19929;-82
2022/11/06 16:58:27;;;;;;;;;;;21.20;90.60;;;;;;5021301;28;19925;-83
2022/11/06 17:00:57;;;;;;;;;;;21.20;90.60;;;;;;5021770;28;20066;-81
2022/11/06 17:03:25;;;;;;;;;;;21.10;90.60;;;;;;5021042;28;19933;-84
2022/11/06 17:05:54;;;;;;;;;;;21.20;90.60;;;;;;5021729;28;19925;-79
2022/11/06 17:08:22;;;;;;;;;;;21.10;90.60;;;;;;5016968;28;20420;-80
2022/11/06 17:10:49;;;;;;;;;;;21.10;90.70;;;;;;5015181;28;20320;-80
2022/11/06 17:13:17;;;;;;;;;;;21.20;90.80;;;;;;5017215;28;19925;-81
2022/11/06 17:15:45;;;;;;;;;;;21.10;90.70;;;;;;5016547;28;19926;-84
2022/11/06 17:18:14;;;;;;;;;;;21.10;90.80;;;;;;5016711;28;19925;-81
2022/11/06 17:20:43;;;;;;;;;;;21.20;90.90;;;;;;5016995;28;19948;-79
2022/11/06 17:23:10;;;;;;;;;;;21.20;90.90;;;;;;5021237;28;19932;-80
2022/11/06 17:25:37;;;;;;;;;;;21.10;90.90;;;;;;5028147;28;20369;-79
2022/11/06 17:28:04;;;;;;;;;;;21.20;90.90;;;;;;5029158;28;20371;-79
2022/11/06 17:30:31;;;;;;;;;;;21.20;90.90;;;;;;5032365;28;19925;-79
2022/11/06 17:33:00;;;;;;;;;;;21.20;91.00;;;;;;5031593;28;19925;-79
2022/11/06 17:35:27;;;;;;;;;;;21.20;91.00;;;;;;5029927;28;19926;-78
2022/11/06 17:37:54;;;;;;;;;;;21.20;91.10;;;;;;5026856;28;19956;-80
2022/11/06 17:40:21;;;;;;;;;;;21.20;91.20;;;;;;5026838;28;19960;-80
2022/11/06 17:42:49;;;;;;;;;;;21.20;91.20;;;;;;5025056;28;19933;-77
2022/11/06 17:45:16;;;;;;;;;;;21.20;91.40;;;;;;5026385;28;19926;-80
2022/11/06 17:47:43;;;;;;;;;;;21.20;91.40;;;;;;5024853;28;19926;-79
2022/11/06 17:50:11;;;;;;;;;;;21.20;91.50;;;;;;5023563;28;19932;-79
2022/11/06 17:52:38;;;;;;;;;;;21.20;91.70;;;;;;5020439;28;19925;-78
2022/11/06 17:55:05;;;;;;;;;;;21.20;91.80;;;;;;5025611;28;19925;-80
2022/11/06 17:57:32;;;;;;;;;;;21.20;91.90;;;;;;5023862;28;19926;-78
2022/11/06 17:59:59;;;;;;;;;;;21.20;92.00;;;;;;5020936;28;20300;-80
2022/11/06 18:02:25;;;;;;;;;;;21.20;92.40;;;;;;5020441;28;19929;-79
2022/11/06 18:04:52;;;;;;;;;;;21.20;92.20;;;;;;5019663;28;19926;-79
2022/11/06 18:07:20;;;;;;;;;;;21.20;92.30;;;;;;5018945;28;20348;-78
2022/11/06 18:09:46;;;;;;;;;;;21.30;92.40;;;;;;5020178;28;19925;-81
2022/11/06 18:12:16;;;;;;;;;;;21.20;92.50;;;;;;5019372;28;19932;-77
2022/11/06 18:14:43;;;;;;;;;;;21.30;92.70;;;;;;5017225;28;19929;-77
2022/11/06 18:17:09;;;;;;;;;;;21.30;92.80;;;;;;5018246;28;19929;-78
2022/11/06 18:19:36;;;;;;;;;;;21.30;92.90;;;;;;5018102;28;19926;-76
2022/11/06 18:22:03;;;;;;;;;;;21.20;92.90;;;;;;5018261;28;19929;-79
2022/11/06 18:24:31;;;;;;;;;;;21.30;93.00;;;;;;5019658;28;19931;-77
2022/11/06 18:26:57;;;;;;;;;;;21.30;93.10;;;;;;5017860;28;19926;-79
2022/11/06 18:29:24;;;;;;;;;;;21.30;93.20;;;;;;5017774;28;20297;-78
2022/11/06 18:31:50;;;;;;;;;;;21.30;93.20;;;;;;5020949;28;19932;-77
2022/11/06 18:34:19;;;;;;;;;;;21.30;93.30;;;;;;5021209;28;19926;-76
2022/11/06 18:36:46;;;;;;;;;;;21.30;93.50;;;;;;5022894;28;19925;-76
2022/11/06 18:39:12;;;;;;;;;;;21.30;93.50;;;;;;5022750;28;19931;-74
2022/11/06 18:41:40;;;;;;;;;;;21.30;93.50;;;;;;5021948;28;19929;-76
2022/11/06 18:44:07;;;;;;;;;;;21.20;93.50;;;;;;5020631;28;20404;-78
2022/11/06 18:46:33;;;;;;;;;;;21.30;93.70;;;;;;5022151;28;19926;-78
2022/11/06 18:49:00;;;;;;;;;;;21.30;93.80;;;;;;5019547;28;19925;-77
2022/11/06 18:51:28;;;;;;;;;;;21.30;93.90;;;;;;5020045;28;20281;-79
2022/11/06 18:53:55;;;;;;;;;;;21.20;93.80;;;;;;5022085;28;19932;-79
2022/11/06 18:56:22;;;;;;;;;;;21.20;93.80;;;;;;5022155;28;19926;-79
2022/11/06 18:58:50;;;;;;;;;;;21.20;93.80;;;;;;5023070;28;19930;-79
2022/11/06 19:01:18;;;;;;;;;;;21.20;93.90;;;;;;5023379;28;19931;-79
2022/11/06 19:03:45;;;;;;;;;;;21.10;93.90;;;;;;5022310;28;19925;-78
2022/11/06 19:06:14;;;;;;;;;;;21.10;93.90;;;;;;5019154;28;20328;-77
2022/11/06 19:08:42;;;;;;;;;;;21.10;93.90;;;;;;5017216;28;20012;-77
2022/11/06 19:11:09;;;;;;;;;;;21.10;94.00;;;;;;5020062;28;19967;-77
2022/11/06 19:13:36;;;;;;;;;;;21.10;94.00;;;;;;5021783;28;20293;-79
2022/11/06 19:16:04;;;;;;;;;;;21.10;94.00;;;;;;5018130;28;20393;-79
2022/11/06 19:18:32;;;;;;;;;;;21.10;94.00;;;;;;5017190;28;19926;-77
2022/11/06 19:21:01;;;;;;;;;;;21.00;94.00;;;;;;5017949;28;19936;-78
2022/11/06 19:23:28;;;;;;;;;;;21.00;94.10;;;;;;5020270;28;19933;-78
2022/11/06 19:25:55;;;;;;;;;;;21.00;94.10;;;;;;5019037;28;19932;-79
2022/11/06 19:28:21;;;;;;;;;;;21.00;94.10;;;;;;5017585;28;20415;-78
2022/11/06 19:30:48;;;;;;;;;;;21.00;94.10;;;;;;5017052;28;19926;-78
2022/11/06 19:33:16;;;;;;;;;;;21.00;94.10;;;;;;5016988;28;19925;-78
2022/11/06 19:35:42;;;;;;;;;;;21.00;94.20;;;;;;5017047;28;20388;-79
2022/11/06 19:38:09;;;;;;;;;;;21.00;94.20;;;;;;5015401;28;19948;-78
2022/11/06 19:40:35;;;;;;;;;;;21.00;94.20;;;;;;5018300;28;19932;-78
2022/11/06 19:43:02;;;;;;;;;;;20.90;94.20;;;;;;5018876;28;19925;-78
2022/11/06 19:45:29;;;;;;;;;;;20.90;94.20;;;;;;5018740;28;19929;-79
2022/11/06 19:47:56;;;;;;;;;;;20.90;94.20;;;;;;5018221;28;19925;-79
2022/11/06 19:50:23;;;;;;;;;;;20.90;94.30;;;;;;5017735;28;19933;-79
2022/11/06 19:52:50;;;;;;;;;;;20.90;94.30;;;;;;5016580;28;19926;-79
2022/11/06 19:55:17;;;;;;;;;;;20.90;94.30;;;;;;5017185;28;19925;-78
2022/11/06 19:57:43;;;;;;;;;;;20.90;94.30;;;;;;5017666;28;20392;-78
2022/11/06 20:00:11;;;;;;;;;;;20.90;94.30;;;;;;5017109;28;19932;-79
2022/11/06 20:02:37;;;;;;;;;;;20.90;94.40;;;;;;5017374;28;19926;-79
2022/11/06 20:05:05;;;;;;;;;;;20.90;94.40;;;;;;5016813;28;19958;-79
2022/11/06 20:07:33;;;;;;;;;;;20.80;94.30;;;;;;5015845;28;20288;-78
2022/11/06 20:10:01;;;;;;;;;;;20.90;94.50;;;;;;5015733;28;19929;-77
2022/11/06 20:12:28;;;;;;;;;;;20.90;94.80;;;;;;5015142;28;20300;-77
2022/11/06 20:14:54;;;;;;;;;;;20.90;94.90;;;;;;5015250;28;19926;-78
2022/11/06 20:17:21;;;;;;;;;;;20.90;95.00;;;;;;5014936;28;20324;-77
2022/11/06 20:19:47;;;;;;;;;;;20.90;95.10;;;;;;5015037;28;19925;-77
2022/11/06 20:22:14;;;;;;;;;;;21.00;95.20;;;;;;5015089;28;19932;-78
2022/11/06 20:24:42;;;;;;;;;;;21.00;95.30;;;;;;5014962;28;19926;-78
2022/11/06 20:27:09;;;;;;;;;;;20.90;95.40;;;;;;5015091;28;19983;-78
2022/11/06 20:29:35;;;;;;;;;;;21.00;95.50;;;;;;5014881;28;19926;-78
2022/11/06 20:32:02;;;;;;;;;;;20.90;95.60;;;;;;5014819;28;19925;-78
2022/11/06 20:34:29;;;;;;;;;;;20.90;95.70;;;;;;5014702;28;20292;-77
2022/11/06 20:36:55;;;;;;;;;;;21.00;95.80;;;;;;5014867;28;20284;-78
2022/11/06 20:39:22;;;;;;;;;;;20.90;95.70;;;;;;5014485;28;19926;-78
2022/11/06 20:41:51;;;;;;;;;;;21.00;95.90;;;;;;5014872;28;19932;-78
2022/11/06 20:44:18;;;;;;;;;;;21.00;96.00;;;;;;5014900;28;19933;-78
2022/11/06 20:46:44;;;;;;;;;;;21.00;96.10;;;;;;5014922;28;19932;-78
2022/11/06 20:49:11;;;;;;;;;;;21.00;96.30;;;;;;5014888;28;19926;-78
2022/11/06 20:51:38;;;;;;;;;;;21.00;96.40;;;;;;5014460;28;20278;-77
2022/11/06 20:54:05;;;;;;;;;;;21.10;96.50;;;;;;5014123;28;20072;-78
2022/11/06 20:56:31;;;;;;;;;;;21.00;96.60;;;;;;5042924;22;19926;-80
2022/11/06 20:58:59;;;;;;;;;;;20.90;96.60;;;;;;5023924;28;19926;-80
2022/11/06 21:01:27;;;;;;;;;;;21.00;96.80;;;;;;5024597;28;19932;-80
2022/11/06 21:03:54;;;;;;;;;;;20.90;96.80;;;;;;5025616;28;19925;-80
2022/11/06 21:06:23;;;;;;;;;;;21.10;97.00;;;;;;5025433;28;20344;-80
2022/11/06 21:08:50;;;;;;;;;;;21.00;97.00;;;;;;5026522;28;19948;-80
2022/11/06 21:11:17;;;;;;;;;;;21.00;97.10;;;;;;5022823;28;19952;-80
2022/11/06 21:13:44;;;;;;;;;;;21.20;97.30;;;;;;5020989;28;19931;-80
2022/11/06 21:16:14;;;;;;;;;;;20.90;97.20;;;;;;5021094;28;19932;-80
2022/11/06 21:18:41;;;;;;;;;;;21.00;97.40;;;;;;5020515;28;19925;-80
2022/11/06 21:21:09;;;;;;;;;;;20.90;97.50;;;;;;5020447;28;19932;-81